<?xml version='1.0' encoding='UTF-8'?>
<gpx
  version='1.0'
  creator='LeonardoLive - http://www.livetrack24.com'
  xmlns:xsi='http://www.w3.org/2001/XMLSchema-instance'
  xmlns='http://www.topografix.com/GPX/1/0'
  xsi:schemaLocation='http://www.topografix.com/GPX/1/0 http://www.topografix.com/GPX/1/0/gpx.xsd'>
		<trk>

<name>claudio5</name>
<desc>Leonardo track</desc>
	<trkseg>
<trkpt lat="39.4450684" lon="-6.3768849">
  <ele>440</ele>
  <time>2015-01-24T16:01:06Z</time>
</trkpt>
<trkpt lat="39.4506264" lon="-6.378273">
  <ele>487</ele>
  <time>2015-01-24T16:02:07Z</time>
</trkpt>
<trkpt lat="39.4475250" lon="-6.3768468">
  <ele>517</ele>
  <time>2015-01-24T16:03:07Z</time>
</trkpt>
<trkpt lat="39.4406815" lon="-6.3749332">
  <ele>553</ele>
  <time>2015-01-24T16:04:07Z</time>
</trkpt>
<trkpt lat="39.4333916" lon="-6.376308">
  <ele>572</ele>
  <time>2015-01-24T16:05:07Z</time>
</trkpt>
<trkpt lat="39.4333382" lon="-6.384582">
  <ele>569</ele>
  <time>2015-01-24T16:06:07Z</time>
</trkpt>
<trkpt lat="39.4318161" lon="-6.3926048">
  <ele>570</ele>
  <time>2015-01-24T16:07:06Z</time>
</trkpt>
<trkpt lat="39.4290924" lon="-6.4009428">
  <ele>546</ele>
  <time>2015-01-24T16:08:08Z</time>
</trkpt>
<trkpt lat="39.4278946" lon="-6.4096432">
  <ele>521</ele>
  <time>2015-01-24T16:09:08Z</time>
</trkpt>
<trkpt lat="39.4279518" lon="-6.4179969">
  <ele>515</ele>
  <time>2015-01-24T16:10:07Z</time>
</trkpt>
<trkpt lat="39.4280777" lon="-6.4267149">
  <ele>496</ele>
  <time>2015-01-24T16:11:08Z</time>
</trkpt>
<trkpt lat="39.4296570" lon="-6.4348621">
  <ele>486</ele>
  <time>2015-01-24T16:12:08Z</time>
</trkpt>
<trkpt lat="39.4328194" lon="-6.4424181">
  <ele>494</ele>
  <time>2015-01-24T16:13:08Z</time>
</trkpt>
<trkpt lat="39.4357567" lon="-6.4497151">
  <ele>510</ele>
  <time>2015-01-24T16:14:07Z</time>
</trkpt>
<trkpt lat="39.4377556" lon="-6.458003">
  <ele>511</ele>
  <time>2015-01-24T16:15:07Z</time>
</trkpt>
<trkpt lat="39.4369049" lon="-6.466928">
  <ele>520</ele>
  <time>2015-01-24T16:16:08Z</time>
</trkpt>
<trkpt lat="39.4325142" lon="-6.474082">
  <ele>538</ele>
  <time>2015-01-24T16:17:07Z</time>
</trkpt>
<trkpt lat="39.4257469" lon="-6.4718132">
  <ele>497</ele>
  <time>2015-01-24T16:18:07Z</time>
</trkpt>
<trkpt lat="39.4260902" lon="-6.4642172">
  <ele>399</ele>
  <time>2015-01-24T16:19:08Z</time>
</trkpt>
<trkpt lat="39.4294815" lon="-6.468667">
  <ele>332</ele>
  <time>2015-01-24T16:20:08Z</time>
</trkpt>
<trkpt lat="39.4272652" lon="-6.4615469">
  <ele>323</ele>
  <time>2015-01-24T16:21:07Z</time>
</trkpt>
<trkpt lat="39.4278488" lon="-6.4556718">
  <ele>346</ele>
  <time>2015-01-24T16:22:07Z</time>
</trkpt>
<trkpt lat="39.4261818" lon="-6.456593">
  <ele>329</ele>
  <time>2015-01-24T16:23:08Z</time>
</trkpt>
<trkpt lat="39.4256172" lon="-6.4547701">
  <ele>334</ele>
  <time>2015-01-24T16:24:08Z</time>
</trkpt>
<trkpt lat="39.4246483" lon="-6.4528232">
  <ele>333</ele>
  <time>2015-01-24T16:25:09Z</time>
</trkpt>
<trkpt lat="39.4271011" lon="-6.4461398">
  <ele>344</ele>
  <time>2015-01-24T16:26:09Z</time>
</trkpt>
<trkpt lat="39.4281082" lon="-6.4381351">
  <ele>383</ele>
  <time>2015-01-24T16:27:09Z</time>
</trkpt>
<trkpt lat="39.4261818" lon="-6.4377351">
  <ele>407</ele>
  <time>2015-01-24T16:28:08Z</time>
</trkpt>
<trkpt lat="39.4277496" lon="-6.4442921">
  <ele>382</ele>
  <time>2015-01-24T16:29:09Z</time>
</trkpt>
<trkpt lat="39.4272079" lon="-6.435812">
  <ele>362</ele>
  <time>2015-01-24T16:30:09Z</time>
</trkpt>
<trkpt lat="39.4279594" lon="-6.4276428">
  <ele>385</ele>
  <time>2015-01-24T16:31:09Z</time>
</trkpt>
<trkpt lat="39.4274330" lon="-6.4335632">
  <ele>385</ele>
  <time>2015-01-24T16:32:09Z</time>
</trkpt>
<trkpt lat="39.4273415" lon="-6.4302869">
  <ele>350</ele>
  <time>2015-01-24T16:33:09Z</time>
</trkpt>
<trkpt lat="39.4261360" lon="-6.4273319">
  <ele>350</ele>
  <time>2015-01-24T16:34:09Z</time>
</trkpt>
<trkpt lat="39.4262772" lon="-6.418427">
  <ele>372</ele>
  <time>2015-01-24T16:35:09Z</time>
</trkpt>
<trkpt lat="39.4271736" lon="-6.4096751">
  <ele>389</ele>
  <time>2015-01-24T16:36:09Z</time>
</trkpt>
<trkpt lat="39.4297333" lon="-6.402185">
  <ele>400</ele>
  <time>2015-01-24T16:37:09Z</time>
</trkpt>
<trkpt lat="39.4321136" lon="-6.396215">
  <ele>439</ele>
  <time>2015-01-24T16:38:09Z</time>
</trkpt>
<trkpt lat="39.4306412" lon="-6.3968029">
  <ele>482</ele>
  <time>2015-01-24T16:39:08Z</time>
</trkpt>
<trkpt lat="39.4291840" lon="-6.3888402">
  <ele>521</ele>
  <time>2015-01-24T16:40:09Z</time>
</trkpt>
<trkpt lat="39.4328384" lon="-6.3828249">
  <ele>557</ele>
  <time>2015-01-24T16:41:09Z</time>
</trkpt>
<trkpt lat="39.4380150" lon="-6.3812623">
  <ele>549</ele>
  <time>2015-01-24T16:42:09Z</time>
</trkpt>
<trkpt lat="39.4435921" lon="-6.3811278">
  <ele>526</ele>
  <time>2015-01-24T16:43:09Z</time>
</trkpt>
<trkpt lat="39.4493294" lon="-6.3801632">
  <ele>461</ele>
  <time>2015-01-24T16:44:09Z</time>
</trkpt>
<trkpt lat="39.4517212" lon="-6.3755698">
  <ele>403</ele>
  <time>2015-01-24T16:45:10Z</time>
</trkpt>
<trkpt lat="39.4448166" lon="-6.3754878">
  <ele>449</ele>
  <time>2015-01-24T16:46:09Z</time>
</trkpt>
<trkpt lat="39.4379654" lon="-6.3772779">
  <ele>457</ele>
  <time>2015-01-24T16:47:09Z</time>
</trkpt>
<trkpt lat="39.4380684" lon="-6.3718472">
  <ele>460</ele>
  <time>2015-01-24T16:48:09Z</time>
</trkpt>
<trkpt lat="39.4433289" lon="-6.3716421">
  <ele>432</ele>
  <time>2015-01-24T16:49:09Z</time>
</trkpt>
<trkpt lat="39.4417877" lon="-6.3769832">
  <ele>420</ele>
  <time>2015-01-24T16:50:09Z</time>
</trkpt>
<trkpt lat="39.4377403" lon="-6.3756928">
  <ele>419</ele>
  <time>2015-01-24T16:51:09Z</time>
</trkpt>
</trkseg>
</trk>
<bounds minlat="39.4246483" minlon="-6.474082" maxlat="39.4517212" maxlon="-6.3716421" />
</gpx>